sensor_id;sensor_type;location;lat;lon;timestamp;pressure;altitude;pressure_sealevel;temperature;humidity
57234;BME280;43090;52.604;13.318;2023-04-19T00:01:05;102237.16;;;5.94;65.17
57234;BME280;43090;52.604;13.318;2023-04-19T00:03:32;102226.31;;;6.03;66.37
57234;BME280;43090;52.604;13.318;2023-04-19T00:05:59;102254.22;;;6.20;65.12
57234;BME280;43090;52.604;13.318;2023-04-19T00:08:25;102243.75;;;6.13;64.56
57234;BME280;43090;52.604;13.318;2023-04-19T00:10:52;102249.97;;;6.12;63.35
57234;BME280;43090;52.604;13.318;2023-04-19T00:13:18;102244.75;;;6.09;62.87
57234;BME280;43090;52.604;13.318;2023-04-19T00:15:45;102224.66;;;5.99;62.45
57234;BME280;43090;52.604;13.318;2023-04-19T00:18:12;102235.47;;;6.24;62.81
57234;BME280;43090;52.604;13.318;2023-04-19T00:20:38;102227.47;;;6.26;65.76
57234;BME280;43090;52.604;13.318;2023-04-19T00:23:05;102228.38;;;5.92;61.68
57234;BME280;43090;52.604;13.318;2023-04-19T00:25:31;102227.47;;;5.91;61.88
57234;BME280;43090;52.604;13.318;2023-04-19T00:28:00;102210.09;;;6.12;61.34
57234;BME280;43090;52.604;13.318;2023-04-19T00:30:26;102237.84;;;6.04;61.86
57234;BME280;43090;52.604;13.318;2023-04-19T00:32:52;102233.91;;;5.84;61.51
57234;BME280;43090;52.604;13.318;2023-04-19T00:35:19;102239.06;;;6.23;61.47
57234;BME280;43090;52.604;13.318;2023-04-19T00:37:46;102228.97;;;5.68;61.05
57234;BME280;43090;52.604;13.318;2023-04-19T00:40:12;102241.25;;;6.09;61.34
57234;BME280;43090;52.604;13.318;2023-04-19T00:42:39;102225.44;;;6.03;61.89
57234;BME280;43090;52.604;13.318;2023-04-19T00:45:06;102221.97;;;5.66;61.38
57234;BME280;43090;52.604;13.318;2023-04-19T00:47:33;102237.47;;;5.83;64.12
57234;BME280;43090;52.604;13.318;2023-04-19T00:50:02;102226.66;;;5.56;62.23
57234;BME280;43090;52.604;13.318;2023-04-19T00:52:31;102210.97;;;5.47;61.95
57234;BME280;43090;52.604;13.318;2023-04-19T00:54:58;102252.66;;;5.78;62.00
57234;BME280;43090;52.604;13.318;2023-04-19T00:57:25;102217.84;;;5.56;62.78
57234;BME280;43090;52.604;13.318;2023-04-19T00:59:53;102213.03;;;5.68;62.91
57234;BME280;43090;52.604;13.318;2023-04-19T01:02:19;102221.41;;;5.55;62.33
57234;BME280;43090;52.604;13.318;2023-04-19T01:04:47;102233.53;;;5.63;63.30
57234;BME280;43090;52.604;13.318;2023-04-19T01:07:14;102234.69;;;5.55;63.40
57234;BME280;43090;52.604;13.318;2023-04-19T01:09:42;102211.69;;;5.54;62.46
57234;BME280;43090;52.604;13.318;2023-04-19T01:12:09;102204.06;;;5.73;65.72
57234;BME280;43090;52.604;13.318;2023-04-19T01:14:36;102218.31;;;5.36;62.70
57234;BME280;43090;52.604;13.318;2023-04-19T01:17:02;102222.16;;;5.25;62.15
57234;BME280;43090;52.604;13.318;2023-04-19T01:19:29;102212.97;;;5.39;62.70
57234;BME280;43090;52.604;13.318;2023-04-19T01:21:55;102234.19;;;5.73;63.65
57234;BME280;43090;52.604;13.318;2023-04-19T01:24:23;102209.06;;;5.17;63.79
57234;BME280;43090;52.604;13.318;2023-04-19T01:26:50;102226.88;;;5.12;63.16
57234;BME280;43090;52.604;13.318;2023-04-19T01:29:16;102224.41;;;5.41;64.23
57234;BME280;43090;52.604;13.318;2023-04-19T01:31:44;102196.63;;;4.82;64.07
57234;BME280;43090;52.604;13.318;2023-04-19T01:34:14;102197.94;;;5.02;65.59
57234;BME280;43090;52.604;13.318;2023-04-19T01:51:13;102210.09;;;4.33;70.29
57234;BME280;43090;52.604;13.318;2023-04-19T01:53:39;102210.34;;;4.63;68.18
57234;BME280;43090;52.604;13.318;2023-04-19T01:56:06;102207.69;;;4.63;68.48
57234;BME280;43090;52.604;13.318;2023-04-19T01:58:32;102205.59;;;4.78;67.45
57234;BME280;43090;52.604;13.318;2023-04-19T02:00:59;102199.69;;;4.65;69.88
57234;BME280;43090;52.604;13.318;2023-04-19T02:03:25;102214.88;;;4.97;68.79
57234;BME280;43090;52.604;13.318;2023-04-19T02:05:52;102208.25;;;4.78;68.11
57234;BME280;43090;52.604;13.318;2023-04-19T02:08:18;102208.72;;;4.95;69.50
57234;BME280;43090;52.604;13.318;2023-04-19T02:10:45;102214.63;;;5.07;68.92
57234;BME280;43090;52.604;13.318;2023-04-19T02:13:11;102203.53;;;4.89;68.13
57234;BME280;43090;52.604;13.318;2023-04-19T02:15:38;102193.31;;;4.72;67.95
57234;BME280;43090;52.604;13.318;2023-04-19T02:18:04;102196.72;;;4.77;69.55
57234;BME280;43090;52.604;13.318;2023-04-19T02:20:32;102180.97;;;4.71;68.85
57234;BME280;43090;52.604;13.318;2023-04-19T02:22:58;102181.19;;;4.60;68.00
57234;BME280;43090;52.604;13.318;2023-04-19T02:25:25;102177.28;;;4.77;67.98
57234;BME280;43090;52.604;13.318;2023-04-19T02:27:51;102194.72;;;4.49;68.62
57234;BME280;43090;52.604;13.318;2023-04-19T02:30:19;102192.75;;;4.59;69.25
57234;BME280;43090;52.604;13.318;2023-04-19T02:32:47;102189.88;;;4.69;70.09
57234;BME280;43090;52.604;13.318;2023-04-19T02:35:13;102184.56;;;4.69;70.72
57234;BME280;43090;52.604;13.318;2023-04-19T02:37:40;102184.91;;;4.91;70.95
57234;BME280;43090;52.604;13.318;2023-04-19T02:40:07;102186.97;;;4.79;70.05
57234;BME280;43090;52.604;13.318;2023-04-19T02:42:34;102175.44;;;4.80;70.83
57234;BME280;43090;52.604;13.318;2023-04-19T02:45:01;102170.69;;;4.95;72.19
57234;BME280;43090;52.604;13.318;2023-04-19T02:47:27;102178.28;;;5.09;72.62
57234;BME280;43090;52.604;13.318;2023-04-19T02:49:54;102173.28;;;4.96;71.54
57234;BME280;43090;52.604;13.318;2023-04-19T02:52:20;102166.31;;;4.92;72.71
57234;BME280;43090;52.604;13.318;2023-04-19T02:54:47;102163.00;;;4.82;72.13
57234;BME280;43090;52.604;13.318;2023-04-19T02:57:13;102148.69;;;4.88;73.48
57234;BME280;43090;52.604;13.318;2023-04-19T02:59:40;102150.22;;;4.98;75.11
57234;BME280;43090;52.604;13.318;2023-04-19T03:02:06;102148.69;;;4.90;76.13
57234;BME280;43090;52.604;13.318;2023-04-19T03:04:33;102149.47;;;4.93;75.22
57234;BME280;43090;52.604;13.318;2023-04-19T03:06:59;102154.06;;;4.87;76.50
57234;BME280;43090;52.604;13.318;2023-04-19T03:09:26;102150.97;;;4.67;77.04
57234;BME280;43090;52.604;13.318;2023-04-19T03:11:52;102138.66;;;4.65;77.60
57234;BME280;43090;52.604;13.318;2023-04-19T03:14:19;102147.25;;;4.76;78.02
57234;BME280;43090;52.604;13.318;2023-04-19T03:16:45;102156.88;;;4.79;76.87
57234;BME280;43090;52.604;13.318;2023-04-19T03:19:12;102128.06;;;4.65;77.25
57234;BME280;43090;52.604;13.318;2023-04-19T03:21:38;102140.66;;;4.55;77.35
57234;BME280;43090;52.604;13.318;2023-04-19T03:24:05;102134.59;;;4.50;78.03
57234;BME280;43090;52.604;13.318;2023-04-19T03:26:31;102117.78;;;4.49;77.39
57234;BME280;43090;52.604;13.318;2023-04-19T03:28:58;102108.31;;;4.39;78.33
57234;BME280;43090;52.604;13.318;2023-04-19T03:31:24;102125.66;;;4.54;78.29
57234;BME280;43090;52.604;13.318;2023-04-19T03:33:51;102129.22;;;4.53;78.41
57234;BME280;43090;52.604;13.318;2023-04-19T03:36:17;102116.50;;;4.28;80.05
57234;BME280;43090;52.604;13.318;2023-04-19T03:38:44;102128.56;;;4.42;80.16
57234;BME280;43090;52.604;13.318;2023-04-19T03:41:21;102121.13;;;4.20;78.84
57234;BME280;43090;52.604;13.318;2023-04-19T03:43:48;102124.97;;;4.46;78.72
57234;BME280;43090;52.604;13.318;2023-04-19T03:46:14;102102.03;;;4.04;80.93
57234;BME280;43090;52.604;13.318;2023-04-19T03:48:41;102109.69;;;4.18;80.30
57234;BME280;43090;52.604;13.318;2023-04-19T03:51:08;102102.88;;;4.05;80.43
57234;BME280;43090;52.604;13.318;2023-04-19T03:53:35;102119.41;;;4.17;79.77
57234;BME280;43090;52.604;13.318;2023-04-19T03:56:01;102108.75;;;4.19;80.61
57234;BME280;43090;52.604;13.318;2023-04-19T03:58:28;102101.28;;;3.97;80.40
57234;BME280;43090;52.604;13.318;2023-04-19T04:00:54;102113.03;;;4.26;80.92
57234;BME280;43090;52.604;13.318;2023-04-19T04:03:21;102107.63;;;4.31;80.99
57234;BME280;43090;52.604;13.318;2023-04-19T04:05:48;102112.34;;;4.18;81.26
57234;BME280;43090;52.604;13.318;2023-04-19T04:08:14;102104.56;;;4.09;81.06
57234;BME280;43090;52.604;13.318;2023-04-19T04:10:41;102102.88;;;4.06;82.28
57234;BME280;43090;52.604;13.318;2023-04-19T04:13:07;102097.13;;;4.26;82.60
57234;BME280;43090;52.604;13.318;2023-04-19T04:15:34;102094.84;;;4.09;82.91
57234;BME280;43090;52.604;13.318;2023-04-19T04:18:00;102100.28;;;4.03;83.04
57234;BME280;43090;52.604;13.318;2023-04-19T04:20:27;102079.97;;;4.02;83.68
57234;BME280;43090;52.604;13.318;2023-04-19T04:22:53;102087.06;;;4.02;83.42
57234;BME280;43090;52.604;13.318;2023-04-19T04:25:20;102088.28;;;4.27;84.60
57234;BME280;43090;52.604;13.318;2023-04-19T04:27:51;102088.38;;;4.23;84.02
57234;BME280;43090;52.604;13.318;2023-04-19T04:30:18;102091.41;;;4.45;83.76
57234;BME280;43090;52.604;13.318;2023-04-19T04:32:44;102096.53;;;4.51;83.29
57234;BME280;43090;52.604;13.318;2023-04-19T04:35:12;102099.84;;;4.61;83.90
57234;BME280;43090;52.604;13.318;2023-04-19T04:37:38;102086.31;;;4.72;84.11
57234;BME280;43090;52.604;13.318;2023-04-19T04:40:05;102093.78;;;4.16;84.89
57234;BME280;43090;52.604;13.318;2023-04-19T04:42:32;102089.47;;;4.12;85.31
57234;BME280;43090;52.604;13.318;2023-04-19T04:44:59;102099.41;;;4.42;84.88
57234;BME280;43090;52.604;13.318;2023-04-19T04:47:30;102087.81;;;4.47;85.41
57234;BME280;43090;52.604;13.318;2023-04-19T04:49:58;102078.34;;;3.96;86.28
57234;BME280;43090;52.604;13.318;2023-04-19T04:52:24;102081.47;;;4.14;85.84
57234;BME280;43090;52.604;13.318;2023-04-19T04:54:51;102066.97;;;4.30;85.42
57234;BME280;43090;52.604;13.318;2023-04-19T04:57:17;102083.28;;;4.13;85.65
57234;BME280;43090;52.604;13.318;2023-04-19T04:59:44;102080.84;;;4.43;84.90
57234;BME280;43090;52.604;13.318;2023-04-19T05:02:13;102077.13;;;4.11;86.43
57234;BME280;43090;52.604;13.318;2023-04-19T05:04:41;102071.25;;;4.36;85.53
57234;BME280;43090;52.604;13.318;2023-04-19T05:07:08;102059.50;;;4.09;84.53
57234;BME280;43090;52.604;13.318;2023-04-19T05:09:34;102064.44;;;4.26;86.43
57234;BME280;43090;52.604;13.318;2023-04-19T05:12:01;102073.38;;;4.59;86.03
57234;BME280;43090;52.604;13.318;2023-04-19T05:14:27;102045.41;;;4.44;83.88
57234;BME280;43090;52.604;13.318;2023-04-19T05:16:53;102053.59;;;4.35;84.87
57234;BME280;43090;52.604;13.318;2023-04-19T05:19:20;102079.50;;;4.96;84.17
57234;BME280;43090;52.604;13.318;2023-04-19T05:21:47;102043.38;;;4.20;83.72
57234;BME280;43090;52.604;13.318;2023-04-19T05:24:13;102075.84;;;4.67;83.03
57234;BME280;43090;52.604;13.318;2023-04-19T05:26:40;102056.16;;;4.40;83.18
57234;BME280;43090;52.604;13.318;2023-04-19T05:29:07;102072.16;;;5.07;83.94
57234;BME280;43090;52.604;13.318;2023-04-19T05:31:33;102047.06;;;4.50;82.41
57234;BME280;43090;52.604;13.318;2023-04-19T05:34:00;102058.13;;;4.67;81.99
57234;BME280;43090;52.604;13.318;2023-04-19T05:36:26;102069.72;;;4.98;81.99
57234;BME280;43090;52.604;13.318;2023-04-19T05:38:53;102071.69;;;4.91;82.93
57234;BME280;43090;52.604;13.318;2023-04-19T05:41:19;102057.16;;;5.38;83.65
57234;BME280;43090;52.604;13.318;2023-04-19T05:43:46;102037.38;;;5.48;80.98
57234;BME280;43090;52.604;13.318;2023-04-19T05:46:13;102041.38;;;5.31;78.82
57234;BME280;43090;52.604;13.318;2023-04-19T05:48:39;102034.50;;;5.56;79.97
57234;BME280;43090;52.604;13.318;2023-04-19T05:51:06;102054.00;;;5.86;78.07
57234;BME280;43090;52.604;13.318;2023-04-19T05:53:32;102040.50;;;5.62;78.79
57234;BME280;43090;52.604;13.318;2023-04-19T05:55:59;102028.81;;;5.68;75.76
57234;BME280;43090;52.604;13.318;2023-04-19T05:58:25;102029.91;;;5.91;75.60
57234;BME280;43090;52.604;13.318;2023-04-19T06:00:52;102024.94;;;5.80;77.23
57234;BME280;43090;52.604;13.318;2023-04-19T06:03:19;102037.16;;;6.15;76.16
57234;BME280;43090;52.604;13.318;2023-04-19T06:05:45;102038.13;;;6.66;72.79
57234;BME280;43090;52.604;13.318;2023-04-19T06:08:12;102031.81;;;7.21;70.01
57234;BME280;43090;52.604;13.318;2023-04-19T06:10:41;102033.06;;;6.59;71.23
57234;BME280;43090;52.604;13.318;2023-04-19T06:13:21;102016.97;;;6.89;70.71
57234;BME280;43090;52.604;13.318;2023-04-19T06:15:48;102016.53;;;6.76;71.20
57234;BME280;43090;52.604;13.318;2023-04-19T06:18:14;102047.03;;;6.92;70.34
57234;BME280;43090;52.604;13.318;2023-04-19T06:20:45;102049.56;;;6.43;71.22
57234;BME280;43090;52.604;13.318;2023-04-19T06:23:12;102013.03;;;6.48;70.26
57234;BME280;43090;52.604;13.318;2023-04-19T06:25:40;102028.06;;;6.49;71.96
57234;BME280;43090;52.604;13.318;2023-04-19T06:28:06;102052.78;;;7.78;67.62
57234;BME280;43090;52.604;13.318;2023-04-19T06:30:33;102032.13;;;9.54;62.60
57234;BME280;43090;52.604;13.318;2023-04-19T06:32:59;102030.41;;;10.64;56.85
57234;BME280;43090;52.604;13.318;2023-04-19T06:35:26;102036.56;;;9.14;59.05
57234;BME280;43090;52.604;13.318;2023-04-19T06:37:52;102049.41;;;8.64;61.92
57234;BME280;43090;52.604;13.318;2023-04-19T06:40:19;102036.16;;;7.71;63.16
57234;BME280;43090;52.604;13.318;2023-04-19T06:42:46;102051.84;;;8.03;63.89
57234;BME280;43090;52.604;13.318;2023-04-19T06:45:12;102026.34;;;7.49;64.96
57234;BME280;43090;52.604;13.318;2023-04-19T06:47:40;102029.34;;;7.64;64.96
57234;BME280;43090;52.604;13.318;2023-04-19T06:50:07;102027.63;;;7.14;66.78
57234;BME280;43090;52.604;13.318;2023-04-19T06:52:34;102018.78;;;6.88;66.06
57234;BME280;43090;52.604;13.318;2023-04-19T06:55:00;102015.22;;;7.13;67.76
57234;BME280;43090;52.604;13.318;2023-04-19T06:57:27;102016.50;;;7.03;66.70
57234;BME280;43090;52.604;13.318;2023-04-19T06:59:54;102015.16;;;7.63;64.74
57234;BME280;43090;52.604;13.318;2023-04-19T07:02:20;102003.31;;;8.37;60.81
57234;BME280;43090;52.604;13.318;2023-04-19T07:04:47;102017.50;;;8.61;58.87
57234;BME280;43090;52.604;13.318;2023-04-19T07:07:14;102010.66;;;9.56;58.60
57234;BME280;43090;52.604;13.318;2023-04-19T07:09:40;101998.31;;;9.13;59.33
57234;BME280;43090;52.604;13.318;2023-04-19T07:12:07;101999.91;;;8.97;58.45
57234;BME280;43090;52.604;13.318;2023-04-19T07:14:34;101996.53;;;8.73;59.37
57234;BME280;43090;52.604;13.318;2023-04-19T07:17:00;101978.25;;;8.84;57.58
57234;BME280;43090;52.604;13.318;2023-04-19T07:19:26;101994.81;;;9.51;55.77
57234;BME280;43090;52.604;13.318;2023-04-19T07:21:54;101984.06;;;9.53;55.50
57234;BME280;43090;52.604;13.318;2023-04-19T07:24:20;101982.44;;;9.29;54.66
57234;BME280;43090;52.604;13.318;2023-04-19T07:26:47;101994.50;;;8.57;56.28
57234;BME280;43090;52.604;13.318;2023-04-19T07:29:13;101962.47;;;8.78;57.03
57234;BME280;43090;52.604;13.318;2023-04-19T07:31:40;101956.47;;;8.73;56.67
57234;BME280;43090;52.604;13.318;2023-04-19T07:34:07;101964.69;;;8.68;58.45
57234;BME280;43090;52.604;13.318;2023-04-19T07:36:34;101975.28;;;8.90;57.88
57234;BME280;43090;52.604;13.318;2023-04-19T07:39:02;101958.22;;;9.13;55.52
57234;BME280;43090;52.604;13.318;2023-04-19T07:41:31;101969.38;;;10.54;53.14
57234;BME280;43090;52.604;13.318;2023-04-19T07:43:57;101957.47;;;10.42;50.58
57234;BME280;43090;52.604;13.318;2023-04-19T07:46:24;101950.63;;;9.99;52.32
57234;BME280;43090;52.604;13.318;2023-04-19T07:48:50;101963.78;;;10.76;50.90
57234;BME280;43090;52.604;13.318;2023-04-19T07:51:17;101950.38;;;10.76;49.90
57234;BME280;43090;52.604;13.318;2023-04-19T07:53:45;101958.47;;;11.57;49.93
57234;BME280;43090;52.604;13.318;2023-04-19T07:56:12;101927.69;;;11.32;47.33
57234;BME280;43090;52.604;13.318;2023-04-19T07:58:40;101959.34;;;11.90;44.55
57234;BME280;43090;52.604;13.318;2023-04-19T08:01:09;101956.75;;;12.50;43.96
57234;BME280;43090;52.604;13.318;2023-04-19T08:03:35;101952.63;;;12.29;43.86
57234;BME280;43090;52.604;13.318;2023-04-19T08:06:04;101952.69;;;12.13;45.11
57234;BME280;43090;52.604;13.318;2023-04-19T08:08:34;101926.31;;;12.50;44.53
57234;BME280;43090;52.604;13.318;2023-04-19T08:11:01;101934.97;;;12.55;44.47
57234;BME280;43090;52.604;13.318;2023-04-19T08:13:28;101943.38;;;12.35;41.35
57234;BME280;43090;52.604;13.318;2023-04-19T08:15:55;101942.09;;;12.56;43.09
57234;BME280;43090;52.604;13.318;2023-04-19T08:18:25;101929.41;;;12.13;42.17
57234;BME280;43090;52.604;13.318;2023-04-19T08:20:52;101928.06;;;12.21;42.60
57234;BME280;43090;52.604;13.318;2023-04-19T08:23:19;101938.09;;;12.03;42.71
57234;BME280;43090;52.604;13.318;2023-04-19T08:25:54;101923.19;;;11.65;44.79
57234;BME280;43090;52.604;13.318;2023-04-19T08:28:22;101931.50;;;12.39;44.09
57234;BME280;43090;52.604;13.318;2023-04-19T08:30:48;101936.16;;;11.73;43.68
57234;BME280;43090;52.604;13.318;2023-04-19T08:33:15;101938.34;;;11.66;42.46
57234;BME280;43090;52.604;13.318;2023-04-19T08:35:41;101909.22;;;11.10;44.48
57234;BME280;43090;52.604;13.318;2023-04-19T08:38:08;101918.00;;;11.30;46.88
57234;BME280;43090;52.604;13.318;2023-04-19T08:40:35;101927.00;;;11.45;43.73
57234;BME280;43090;52.604;13.318;2023-04-19T08:43:06;101915.19;;;10.99;44.35
57234;BME280;43090;52.604;13.318;2023-04-19T08:45:33;101902.44;;;11.21;46.55
57234;BME280;43090;52.604;13.318;2023-04-19T08:48:00;101887.63;;;11.13;43.97
57234;BME280;43090;52.604;13.318;2023-04-19T08:50:29;101896.13;;;11.54;42.98
57234;BME280;43090;52.604;13.318;2023-04-19T08:53:11;101917.81;;;11.17;44.02
57234;BME280;43090;52.604;13.318;2023-04-19T08:55:41;101900.78;;;10.84;44.49
57234;BME280;43090;52.604;13.318;2023-04-19T08:58:28;101892.25;;;10.60;45.91
57234;BME280;43090;52.604;13.318;2023-04-19T09:01:11;101897.72;;;11.24;46.77
57234;BME280;43090;52.604;13.318;2023-04-19T09:03:58;101907.25;;;11.14;45.35
57234;BME280;43090;52.604;13.318;2023-04-19T09:06:54;101871.84;;;10.91;46.25
57234;BME280;43090;52.604;13.318;2023-04-19T09:09:22;101888.63;;;10.61;47.46
57234;BME280;43090;52.604;13.318;2023-04-19T09:12:19;101860.44;;;10.19;46.60
57234;BME280;43090;52.604;13.318;2023-04-19T09:18:26;101864.38;;;10.80;45.59
57234;BME280;43090;52.604;13.318;2023-04-19T09:20:56;101865.41;;;11.27;47.40
57234;BME280;43090;52.604;13.318;2023-04-19T09:23:25;101840.31;;;11.28;44.40
57234;BME280;43090;52.604;13.318;2023-04-19T09:26:02;101850.97;;;11.14;42.90
57234;BME280;43090;52.604;13.318;2023-04-19T09:28:32;101850.28;;;11.10;43.22
57234;BME280;43090;52.604;13.318;2023-04-19T09:31:09;101869.38;;;11.36;44.37
57234;BME280;43090;52.604;13.318;2023-04-19T09:33:55;101845.88;;;10.60;44.11
57234;BME280;43090;52.604;13.318;2023-04-19T09:36:29;101858.06;;;10.65;44.00
57234;BME280;43090;52.604;13.318;2023-04-19T09:38:57;101836.38;;;10.86;43.14
57234;BME280;43090;52.604;13.318;2023-04-19T09:41:26;101837.38;;;11.17;43.90
57234;BME280;43090;52.604;13.318;2023-04-19T09:43:53;101816.88;;;11.00;42.91
57234;BME280;43090;52.604;13.318;2023-04-19T09:46:34;101841.84;;;11.00;42.87
57234;BME280;43090;52.604;13.318;2023-04-19T09:51:52;101820.97;;;11.23;43.36
57234;BME280;43090;52.604;13.318;2023-04-19T09:54:20;101819.91;;;11.58;46.19
57234;BME280;43090;52.604;13.318;2023-04-19T09:56:48;101822.53;;;11.74;43.20
57234;BME280;43090;52.604;13.318;2023-04-19T09:59:15;101796.53;;;11.44;43.21
57234;BME280;43090;52.604;13.318;2023-04-19T10:01:53;101827.34;;;11.53;46.81
57234;BME280;43090;52.604;13.318;2023-04-19T10:04:21;101797.75;;;11.54;43.33
57234;BME280;43090;52.604;13.318;2023-04-19T10:07:08;101792.28;;;11.56;43.94
57234;BME280;43090;52.604;13.318;2023-04-19T10:09:56;101802.94;;;11.41;44.46
57234;BME280;43090;52.604;13.318;2023-04-19T10:12:37;101801.13;;;11.88;43.68
57234;BME280;43090;52.604;13.318;2023-04-19T10:15:24;101802.53;;;11.79;45.59
57234;BME280;43090;52.604;13.318;2023-04-19T10:18:08;101811.34;;;11.81;42.33
57234;BME280;43090;52.604;13.318;2023-04-19T10:20:56;101818.38;;;11.84;41.18
57234;BME280;43090;52.604;13.318;2023-04-19T10:23:23;101807.44;;;11.87;41.42
57234;BME280;43090;52.604;13.318;2023-04-19T10:25:54;101810.75;;;11.76;42.83
57234;BME280;43090;52.604;13.318;2023-04-19T10:28:21;101801.53;;;11.66;42.30
57234;BME280;43090;52.604;13.318;2023-04-19T10:31:02;101805.22;;;11.79;42.99
57234;BME280;43090;52.604;13.318;2023-04-19T10:33:34;101786.56;;;11.92;41.10
57234;BME280;43090;52.604;13.318;2023-04-19T10:36:01;101780.66;;;12.02;42.73
57234;BME280;43090;52.604;13.318;2023-04-19T10:41:02;101783.38;;;12.16;42.92
57234;BME280;43090;52.604;13.318;2023-04-19T10:43:32;101794.13;;;12.16;42.56
57234;BME280;43090;52.604;13.318;2023-04-19T10:46:05;101792.06;;;12.05;43.56
57234;BME280;43090;52.604;13.318;2023-04-19T10:48:33;101793.44;;;11.82;42.84
57234;BME280;43090;52.604;13.318;2023-04-19T10:51:17;101785.47;;;11.50;42.43
57234;BME280;43090;52.604;13.318;2023-04-19T10:53:52;101773.22;;;12.07;44.47
57234;BME280;43090;52.604;13.318;2023-04-19T11:01:41;101774.53;;;12.86;42.94
57234;BME280;43090;52.604;13.318;2023-04-19T11:04:20;101784.72;;;12.66;42.19
57234;BME280;43090;52.604;13.318;2023-04-19T11:09:37;101758.34;;;12.59;41.13
57234;BME280;43090;52.604;13.318;2023-04-19T11:14:39;101758.25;;;12.60;43.89
57234;BME280;43090;52.604;13.318;2023-04-19T11:17:27;101760.72;;;12.78;41.99
57234;BME280;43090;52.604;13.318;2023-04-19T11:22:34;101761.25;;;12.97;41.92
57234;BME280;43090;52.604;13.318;2023-04-19T11:25:09;101759.88;;;12.63;42.67
57234;BME280;43090;52.604;13.318;2023-04-19T11:27:38;101748.38;;;12.32;41.41
57234;BME280;43090;52.604;13.318;2023-04-19T11:30:13;101764.16;;;12.08;42.76
57234;BME280;43090;52.604;13.318;2023-04-19T11:32:51;101745.72;;;11.87;41.98
57234;BME280;43090;52.604;13.318;2023-04-19T11:35:23;101741.63;;;11.96;44.55
57234;BME280;43090;52.604;13.318;2023-04-19T11:37:50;101734.47;;;12.25;43.42
57234;BME280;43090;52.604;13.318;2023-04-19T11:40:18;101744.81;;;12.31;41.66
57234;BME280;43090;52.604;13.318;2023-04-19T11:42:45;101754.19;;;11.95;42.44
57234;BME280;43090;52.604;13.318;2023-04-19T11:45:24;101751.28;;;11.84;42.54
57234;BME280;43090;52.604;13.318;2023-04-19T11:47:57;101747.22;;;11.46;43.92
57234;BME280;43090;52.604;13.318;2023-04-19T11:50:37;101747.88;;;11.36;43.81
57234;BME280;43090;52.604;13.318;2023-04-19T11:53:20;101733.31;;;11.70;43.88
57234;BME280;43090;52.604;13.318;2023-04-19T11:55:52;101738.97;;;11.80;46.14
57234;BME280;43090;52.604;13.318;2023-04-19T12:01:08;101737.25;;;11.95;42.20
57234;BME280;43090;52.604;13.318;2023-04-19T12:03:46;101737.31;;;11.93;42.58
57234;BME280;43090;52.604;13.318;2023-04-19T12:06:21;101723.38;;;11.72;43.27
57234;BME280;43090;52.604;13.318;2023-04-19T12:08:49;101719.84;;;11.86;44.31
57234;BME280;43090;52.604;13.318;2023-04-19T12:11:18;101704.25;;;12.07;44.40
57234;BME280;43090;52.604;13.318;2023-04-19T12:13:47;101704.31;;;11.91;42.33
57234;BME280;43090;52.604;13.318;2023-04-19T12:16:13;101701.25;;;11.83;43.99
57234;BME280;43090;52.604;13.318;2023-04-19T12:18:47;101708.91;;;11.75;44.01
57234;BME280;43090;52.604;13.318;2023-04-19T12:21:25;101704.25;;;11.62;43.04
57234;BME280;43090;52.604;13.318;2023-04-19T12:23:56;101669.94;;;11.53;42.37
57234;BME280;43090;52.604;13.318;2023-04-19T12:26:24;101697.78;;;11.81;42.76
57234;BME280;43090;52.604;13.318;2023-04-19T12:28:52;101673.06;;;11.76;42.54
57234;BME280;43090;52.604;13.318;2023-04-19T12:31:19;101685.69;;;11.29;44.35
57234;BME280;43090;52.604;13.318;2023-04-19T12:33:46;101689.69;;;11.22;42.02
57234;BME280;43090;52.604;13.318;2023-04-19T12:36:12;101690.72;;;11.19;43.80
57234;BME280;43090;52.604;13.318;2023-04-19T12:38:39;101676.31;;;11.36;44.70
57234;BME280;43090;52.604;13.318;2023-04-19T12:41:05;101687.78;;;11.24;43.68
57234;BME280;43090;52.604;13.318;2023-04-19T12:43:31;101675.72;;;11.00;44.47
57234;BME280;43090;52.604;13.318;2023-04-19T12:45:59;101677.09;;;11.38;44.67
57234;BME280;43090;52.604;13.318;2023-04-19T12:48:26;101673.41;;;11.55;42.80
57234;BME280;43090;52.604;13.318;2023-04-19T12:50:53;101654.25;;;11.61;41.64
57234;BME280;43090;52.604;13.318;2023-04-19T12:53:20;101658.25;;;11.99;40.81
57234;BME280;43090;52.604;13.318;2023-04-19T12:55:48;101652.47;;;11.91;40.89
57234;BME280;43090;52.604;13.318;2023-04-19T12:58:17;101660.16;;;12.26;40.00
57234;BME280;43090;52.604;13.318;2023-04-19T13:00:43;101618.75;;;12.15;39.29
57234;BME280;43090;52.604;13.318;2023-04-19T13:03:10;101615.78;;;12.47;38.11
57234;BME280;43090;52.604;13.318;2023-04-19T13:05:40;101636.47;;;12.87;40.46
57234;BME280;43090;52.604;13.318;2023-04-19T13:08:06;101619.72;;;12.83;38.70
57234;BME280;43090;52.604;13.318;2023-04-19T13:10:33;101627.69;;;12.85;38.82
57234;BME280;43090;52.604;13.318;2023-04-19T13:12:59;101616.97;;;12.71;36.46
57234;BME280;43090;52.604;13.318;2023-04-19T13:15:26;101611.19;;;12.49;36.48
57234;BME280;43090;52.604;13.318;2023-04-19T13:17:54;101611.09;;;12.51;36.15
57234;BME280;43090;52.604;13.318;2023-04-19T13:20:20;101623.88;;;12.75;38.56
57234;BME280;43090;52.604;13.318;2023-04-19T13:22:47;101607.50;;;12.23;36.83
57234;BME280;43090;52.604;13.318;2023-04-19T13:25:13;101603.66;;;12.27;37.81
57234;BME280;43090;52.604;13.318;2023-04-19T13:27:40;101606.69;;;12.08;37.49
57234;BME280;43090;52.604;13.318;2023-04-19T13:30:07;101605.59;;;12.25;36.85
57234;BME280;43090;52.604;13.318;2023-04-19T13:32:33;101595.56;;;12.42;37.25